Wilson Maas — 8PSZ — position and weather

sailwx.info

Track history (hours):
 
Tides and Currents Weather Stations Pressure Air Temp Water Temp Dewpoint Dewpoint Depression Visibility Wind Speed Wind Dir Waves Ship Positions

Wilson Maas

Last reported at 2016-May-24 16:33 UTC. Time now 2016-May-24 17:46 UTC.
Position N 59°45' E 005°30'.

Length 78 m; draft 3.7 m.

Type: Cargo ship. MMSI: 314217000.

Date/timePositionNaut miles runAvg speedWind from/ knotsBaromVisibWave heightAir tempDewpointWater temp
2016-May-24 16:33N 59°45' E 005°30'  
2016-May-20 23:33N 66°17' E 012°15'10 0.5
2016-May-20 02:33N 66°17' E 012°41'10 9.7
2016-May-20 01:33N 66°24' E 012°59'9 9.1
2016-May-20 00:32N 66°33' E 013°01'15 0.8
2016-May-19 06:33N 66°46' E 013°15'2110.1
2016-May-19 04:31N 66°27' E 012°60'1110.0
2016-May-19 03:26N 66°18' E 012°44'8 9.1
2016-May-19 02:32N 66°15' E 012°25'  
2016-May-15 07:18N 54°57' W 000°24'6 8.3
2016-May-15 06:33N 54°51' W 000°20'9 8.5
2016-May-15 05:32N 54°43' W 000°14'8 8.4
2016-May-15 04:34N 54°35' W 000°09'8 8.4
2016-May-15 03:34N 54°28' W 000°04'8 8.2
2016-May-15 02:34N 54°20' E 000°02'8 8.0
2016-May-15 01:34N 54°13' E 000°07'7 7.3
2016-May-15 00:34N 54°06' E 000°12'  
Track history (hours):
 
Tides and Currents Weather Stations Pressure Air Temp Water Temp Dewpoint Dewpoint Depression Visibility Wind Speed Wind Dir Waves Ship Positions

Wilson Maas

Last reported at 2016-May-24 16:33 UTC. Time now 2016-May-24 17:46 UTC.
Position N 59°45' E 005°30'.

Length 78 m; draft 3.7 m.

Type: Cargo ship. MMSI: 314217000.

Date/timePositionNaut miles runAvg speedWind from/ knotsBaromVisibWave heightAir tempDewpointWater temp
2016-May-24 16:33N 59°45' E 005°30'  
2016-May-20 23:33N 66°17' E 012°15'10 0.5
2016-May-20 02:33N 66°17' E 012°41'10 9.7
2016-May-20 01:33N 66°24' E 012°59'9 9.1
2016-May-20 00:32N 66°33' E 013°01'15 0.8
2016-May-19 06:33N 66°46' E 013°15'2110.1
2016-May-19 04:31N 66°27' E 012°60'1110.0
2016-May-19 03:26N 66°18' E 012°44'8 9.1
2016-May-19 02:32N 66°15' E 012°25'  
2016-May-15 07:18N 54°57' W 000°24'6 8.3
2016-May-15 06:33N 54°51' W 000°20'9 8.5
2016-May-15 05:32N 54°43' W 000°14'8 8.4
2016-May-15 04:34N 54°35' W 000°09'8 8.4
2016-May-15 03:34N 54°28' W 000°04'8 8.2
2016-May-15 02:34N 54°20' E 000°02'8 8.0
2016-May-15 01:34N 54°13' E 000°07'7 7.3
2016-May-15 00:34N 54°06' E 000°12'  

Dump ship's entire track history